Hartford, Connecticut
Traffic Map
Current Weather Conditions
Hartford, Connecticut
Clear
Clear
87°
Feels Like: 88°
Wind Chill: 87° Ceiling: Unl
Heat Index: 88° Visibility: 10mi
Dew Point: 63° Wind: 6mph
Humidity: 44% Direction: 190° (S)
Pressure: 29.93in Gusts: 0mph
Raw Report DataKHFD 271453Z 19005KT 10SM CLR 31/17 A2993 RMK AO2 SLP134 T03060172 58006
Traffic Incident Summary
Active as of:
Severity:
Category:
InformationThere was an issue retrieving the traffic information for this location. Please try a different location or try again shortly.
Advertisements
Track Severe Weather on mobile